Time;durP1;ratioP1;P1;durP2;ratioP2;P2;SDS_P1;SDS_P2;PMS_P1;PMS_P2;Temp;Humidity;BMP_temperature;BMP_pressure;BME280_temperature;BME280_humidity;BME280_pressure;Samples;Min_cycle;Max_cycle;Signal;HPM_P1;HPM_P2
2022/04/15 00:01:38;;;;;;;11.20;8.30;;;;;;;15.33;48.37;102344.94;6312148;22;20038;-63
2022/04/15 00:04:05;;;;;;;17.27;9.68;;;;;;;15.30;48.44;102348.72;6339909;22;20015;-64
2022/04/15 00:06:32;;;;;;;13.63;10.52;;;;;;;15.26;48.22;102350.78;6339801;22;20333;-64
2022/04/15 00:09:00;;;;;;;12.23;9.98;;;;;;;15.24;48.38;102351.84;6339427;22;20314;-63
2022/04/15 00:11:28;;;;;;;14.88;10.10;;;;;;;15.21;48.47;102349.34;6311543;22;20041;-62
2022/04/15 00:13:55;;;;;;;16.98;10.73;;;;;;;15.16;48.51;102346.94;6339414;22;20341;-63
2022/04/15 00:16:21;;;;;;;17.10;10.07;;;;;;;15.10;48.93;102354.59;6311783;22;20349;-63
2022/04/15 00:18:48;;;;;;;14.43;10.20;;;;;;;15.05;49.11;102345.91;6310684;22;20029;-63
2022/04/15 00:21:15;;;;;;;13.02;9.93;;;;;;;15.00;49.13;102342.66;6311559;22;20025;-63
2022/04/15 00:23:41;;;;;;;12.32;9.90;;;;;;;14.95;49.04;102345.66;6339370;22;20325;-64
2022/04/15 00:26:08;;;;;;;14.13;9.40;;;;;;;14.90;49.19;102345.09;6312235;22;20143;-63
2022/04/15 00:28:34;;;;;;;16.65;9.48;;;;;;;14.85;49.38;102349.91;6339274;22;20036;-63
2022/04/15 00:31:02;;;;;;;14.50;10.38;;;;;;;14.83;49.32;102347.28;6339100;22;20015;-63
2022/04/15 00:33:28;;;;;;;15.88;9.82;;;;;;;14.80;49.64;102350.19;6339489;22;20010;-63
2022/04/15 00:35:55;;;;;;;15.60;10.15;;;;;;;14.79;49.71;102355.72;6339607;22;20089;-63
2022/04/15 00:38:21;;;;;;;18.77;10.45;;;;;;;14.76;49.86;102351.38;6338576;22;20053;-63
2022/04/15 00:40:48;;;;;;;14.63;9.13;;;;;;;14.74;50.09;102347.03;6338381;22;20015;-64
2022/04/15 00:43:14;;;;;;;16.17;9.95;;;;;;;14.74;49.89;102355.13;6338953;22;20340;-64
2022/04/15 00:45:45;;;;;;;14.77;10.05;;;;;;;14.73;49.88;102353.41;6339474;22;20011;-63
2022/04/15 00:48:13;;;;;;;14.82;10.07;;;;;;;14.70;50.05;102357.19;6339242;22;20038;-64
2022/04/15 00:50:43;;;;;;;15.13;10.30;;;;;;;14.69;49.84;102359.97;6338793;22;20448;-64
2022/04/15 00:53:11;;;;;;;13.23;10.63;;;;;;;14.67;49.65;102356.50;6310713;22;20014;-63
2022/04/15 00:55:40;;;;;;;17.67;11.05;;;;;;;14.63;49.94;102361.25;6338746;22;20022;-63
2022/04/15 00:58:08;;;;;;;17.77;11.10;;;;;;;14.59;50.05;102370.50;6310198;22;20375;-63
2022/04/15 01:00:36;;;;;;;16.88;11.20;;;;;;;14.54;49.90;102368.09;6338004;22;20015;-63
2022/04/15 01:03:05;;;;;;;16.77;11.73;;;;;;;14.46;50.24;102361.44;6338695;22;20015;-63
2022/04/15 01:05:33;;;;;;;18.45;12.20;;;;;;;14.41;50.49;102369.81;6338702;22;20014;-63
2022/04/15 01:08:02;;;;;;;17.15;10.90;;;;;;;14.36;50.72;102362.97;6333642;22;20053;-64
2022/04/15 01:10:29;;;;;;;16.67;10.30;;;;;;;14.30;50.49;102364.22;6337426;22;20477;-63
2022/04/15 01:12:57;;;;;;;14.52;9.90;;;;;;;14.23;50.77;102373.66;6338674;22;20015;-63
2022/04/15 01:15:44;;;;;;;15.65;10.07;;;;;;;14.17;50.90;102376.75;6338603;22;20015;-63
2022/04/15 01:18:11;;;;;;;16.52;10.73;;;;;;;14.12;50.72;102371.63;6338712;22;20011;-63
2022/04/15 01:20:40;;;;;;;14.13;10.27;;;;;;;14.11;51.14;102375.25;6338608;22;20014;-63
2022/04/15 01:23:08;;;;;;;16.92;10.90;;;;;;;14.10;51.12;102373.53;6309761;22;20015;-64
2022/04/15 01:25:36;;;;;;;16.52;11.18;;;;;;;14.09;51.14;102374.50;6339262;22;20018;-63
2022/04/15 01:28:03;;;;;;;11.05;9.23;;;;;;;14.07;50.96;102373.72;6339175;22;20025;-62
2022/04/15 01:30:30;;;;;;;14.50;9.85;;;;;;;14.07;51.21;102383.66;6338416;22;20007;-63
2022/04/15 01:32:57;;;;;;;12.45;9.13;;;;;;;14.04;51.27;102381.13;6337768;22;20015;-64
2022/04/15 01:35:27;;;;;;;12.60;9.43;;;;;;;14.03;51.25;102384.81;6312286;22;20341;-63
2022/04/15 01:37:53;;;;;;;13.48;8.27;;;;;;;14.02;51.16;102385.75;6338890;22;20007;-62
2022/04/15 01:40:20;;;;;;;10.57;7.55;;;;;;;13.99;50.91;102389.53;6338919;22;20006;-63
2022/04/15 01:42:47;;;;;;;10.45;7.28;;;;;;;13.97;50.80;102386.03;6338297;22;20030;-62
2022/04/15 01:45:14;;;;;;;14.23;8.77;;;;;;;13.94;50.97;102386.22;6284254;22;20031;-62
2022/04/15 01:47:41;;;;;;;11.35;8.02;;;;;;;13.91;50.82;102392.69;6338637;22;20022;-63
2022/04/15 01:50:11;;;;;;;12.63;7.85;;;;;;;13.88;50.81;102395.56;6338476;22;20042;-62
2022/04/15 01:52:38;;;;;;;15.32;8.25;;;;;;;13.85;50.48;102393.06;6337673;22;20030;-63
2022/04/15 01:55:05;;;;;;;10.15;7.88;;;;;;;13.81;50.79;102396.03;6338848;22;20017;-63
2022/04/15 01:57:32;;;;;;;13.43;8.70;;;;;;;13.80;50.52;102405.09;6337965;22;20019;-63
2022/04/15 01:59:58;;;;;;;16.15;9.63;;;;;;;13.76;50.74;102401.72;6310406;22;20101;-63
2022/04/15 02:02:26;;;;;;;14.90;10.00;;;;;;;13.73;50.76;102401.91;6338718;22;20381;-63
2022/04/15 02:04:53;;;;;;;14.77;10.68;;;;;;;13.69;50.73;102397.66;6312003;22;20042;-63
2022/04/15 02:07:19;;;;;;;14.27;10.18;;;;;;;13.65;50.88;102407.75;6340841;22;20083;-63
2022/04/15 02:09:46;;;;;;;13.60;9.68;;;;;;;13.61;50.86;102403.50;6338627;22;20007;-63
2022/04/15 02:12:13;;;;;;;16.65;10.68;;;;;;;13.60;50.83;102403.59;6340451;22;20011;-62
2022/04/15 02:14:39;;;;;;;16.08;10.20;;;;;;;13.56;50.94;102404.72;6312902;22;20064;-62
2022/04/15 02:17:06;;;;;;;13.65;10.02;;;;;;;13.53;51.08;102410.31;6340611;22;20011;-63
2022/04/15 02:19:33;;;;;;;13.80;10.13;;;;;;;13.49;51.42;102408.75;6340579;22;20015;-63
2022/04/15 02:21:59;;;;;;;11.40;7.35;;;;;;;13.44;51.44;102414.41;6339442;22;20011;-63
2022/04/15 02:24:26;;;;;;;7.88;6.55;;;;;;;13.41;51.55;102408.31;6340259;22;20018;-66
2022/04/15 02:26:52;;;;;;;10.68;7.50;;;;;;;13.38;51.34;102416.56;6340292;22;20017;-62
2022/04/15 02:29:19;;;;;;;9.05;6.97;;;;;;;13.34;51.57;102422.13;6340061;22;20019;-62
2022/04/15 02:31:45;;;;;;;8.38;6.07;;;;;;;13.30;51.57;102420.59;6339903;22;20010;-63
2022/04/15 02:34:12;;;;;;;13.88;7.68;;;;;;;13.28;51.64;102427.03;6312298;22;20015;-63
2022/04/15 02:36:38;;;;;;;10.15;7.65;;;;;;;13.26;51.56;102423.53;6312692;22;20402;-62
2022/04/15 02:39:10;;;;;;;8.55;7.20;;;;;;;13.24;51.74;102420.94;6313104;22;20018;-63
2022/04/15 02:41:39;;;;;;;9.10;6.63;;;;;;;13.21;51.60;102422.94;6312435;22;20456;-63
2022/04/15 02:44:07;;;;;;;8.63;5.53;;;;;;;13.19;51.57;102424.84;6340148;22;20014;-62
2022/04/15 02:46:35;;;;;;;5.65;4.82;;;;;;;13.15;51.46;102425.94;6311586;22;20060;-62
2022/04/15 02:49:03;;;;;;;4.03;3.63;;;;;;;13.09;51.22;102434.38;6339795;22;20383;-63
2022/04/15 02:51:30;;;;;;;3.70;3.15;;;;;;;13.01;51.35;102424.91;6340213;22;20093;-63
2022/04/15 02:53:57;;;;;;;3.10;2.80;;;;;;;12.94;51.24;102431.59;6340101;22;20007;-62
2022/04/15 02:56:23;;;;;;;3.08;2.70;;;;;;;12.90;51.15;102426.47;6312399;22;20011;-62
2022/04/15 02:58:50;;;;;;;7.53;4.20;;;;;;;12.86;51.13;102428.47;6338432;22;20014;-63
2022/04/15 03:01:16;;;;;;;5.65;3.72;;;;;;;12.83;51.37;102430.44;6340094;22;20097;-64
2022/04/15 03:03:43;;;;;;;7.03;4.40;;;;;;;12.78;51.35;102436.09;6340065;22;20455;-62
2022/04/15 03:06:10;;;;;;;4.10;3.70;;;;;;;12.75;51.43;102425.50;6339851;22;20036;-63
2022/04/15 03:08:36;;;;;;;5.72;4.82;;;;;;;12.72;51.45;102434.59;6339937;22;20018;-62
2022/04/15 03:11:03;;;;;;;9.25;5.97;;;;;;;12.72;51.53;102437.31;6339794;22;20101;-63
2022/04/15 03:13:29;;;;;;;6.47;5.03;;;;;;;12.71;51.32;102438.25;6312422;22;20074;-62
2022/04/15 03:16:02;;;;;;;8.05;6.28;;;;;;;12.70;51.29;102433.81;6339772;22;20098;-63
2022/04/15 03:18:29;;;;;;;8.20;6.75;;;;;;;12.69;51.41;102437.47;6339972;22;20463;-62
2022/04/15 03:20:55;;;;;;;9.40;6.32;;;;;;;12.66;51.42;102424.16;6339251;22;20439;-64
2022/04/15 03:23:22;;;;;;;8.68;6.43;;;;;;;12.64;51.42;102430.59;6339977;22;20015;-62
2022/04/15 03:25:49;;;;;;;13.70;8.80;;;;;;;12.59;51.36;102433.50;6339799;22;20097;-63
2022/04/15 03:28:15;;;;;;;13.38;7.28;;;;;;;12.55;51.54;102436.44;6312631;22;20128;-63
2022/04/15 03:30:42;;;;;;;12.32;8.63;;;;;;;12.49;51.78;102436.78;6339432;22;20038;-62
2022/04/15 03:33:08;;;;;;;18.55;10.20;;;;;;;12.44;51.56;102437.03;6338874;22;20042;-63
2022/04/15 03:35:35;;;;;;;14.50;9.02;;;;;;;12.36;51.64;102439.25;6339868;22;20349;-62
2022/04/15 03:38:02;;;;;;;19.77;9.43;;;;;;;12.23;51.90;102436.34;6339664;22;20398;-63
2022/04/15 03:40:29;;;;;;;15.73;10.63;;;;;;;12.11;51.93;102438.81;6339835;22;20042;-62
2022/04/15 03:42:56;;;;;;;12.98;9.25;;;;;;;11.99;52.14;102445.72;6340011;22;20535;-62
2022/04/15 03:45:23;;;;;;;12.45;9.43;;;;;;;11.93;52.39;102446.91;6338675;22;20010;-64
2022/04/15 03:47:51;;;;;;;11.65;9.30;;;;;;;11.87;52.39;102452.56;6339443;22;20490;-63
2022/04/15 03:50:18;;;;;;;14.20;10.23;;;;;;;11.80;52.50;102452.94;6339564;22;20014;-62
2022/04/15 03:52:46;;;;;;;12.88;10.50;;;;;;;11.74;52.60;102454.97;6339119;22;20344;-63
2022/04/15 03:55:19;;;;;;;23.35;13.32;;;;;;;11.71;52.98;102457.81;6312178;22;20018;-62
2022/04/15 03:57:47;;;;;;;23.88;15.93;;;;;;;11.69;53.03;102454.34;6339416;22;20061;-62
2022/04/15 04:00:19;;;;;;;23.08;17.15;;;;;;;11.70;53.32;102464.16;6339425;22;20042;-62
2022/04/15 04:02:47;;;;;;;25.65;18.33;;;;;;;11.73;53.67;102463.13;6338988;22;20010;-62
2022/04/15 04:05:14;;;;;;;27.50;18.50;;;;;;;11.80;54.00;102469.97;6339826;22;20015;-63
2022/04/15 04:07:44;;;;;;;24.33;18.23;;;;;;;11.87;54.32;102475.91;6339619;22;20030;-62
2022/04/15 04:10:12;;;;;;;30.73;18.25;;;;;;;11.91;54.36;102467.66;6338853;22;20041;-63
2022/04/15 04:12:41;;;;;;;27.45;18.38;;;;;;;11.98;54.56;102474.47;6339487;22;20341;-62
2022/04/15 04:15:10;;;;;;;24.23;18.58;;;;;;;12.03;54.74;102471.53;6311680;22;20015;-63
2022/04/15 04:17:36;;;;;;;30.05;19.58;;;;;;;12.07;54.84;102475.81;6312179;22;20085;-63
2022/04/15 04:20:05;;;;;;;26.65;19.13;;;;;;;12.13;55.20;102488.97;6311869;22;20385;-63
2022/04/15 04:22:34;;;;;;;28.13;19.67;;;;;;;12.19;55.12;102485.94;6311489;22;20014;-62
2022/04/15 04:25:02;;;;;;;27.20;19.02;;;;;;;12.25;55.25;102492.84;6339568;22;20026;-62
2022/04/15 04:27:30;;;;;;;25.85;18.13;;;;;;;12.30;55.43;102486.25;6311499;22;20014;-62
2022/04/15 04:29:57;;;;;;;26.00;18.73;;;;;;;12.34;55.58;102490.53;6337961;22;20041;-62
2022/04/15 04:32:23;;;;;;;24.85;18.75;;;;;;;12.38;55.67;102488.56;6338781;22;20397;-63
2022/04/15 04:34:50;;;;;;;29.90;19.95;;;;;;;12.41;55.71;102491.09;6339133;22;20440;-63
2022/04/15 04:37:17;;;;;;;21.15;17.23;;;;;;;12.44;55.98;102490.06;6339521;22;20367;-64
2022/04/15 04:39:43;;;;;;;26.27;15.73;;;;;;;12.44;55.84;102493.63;6338814;22;20015;-63
2022/04/15 04:42:10;;;;;;;21.50;15.48;;;;;;;12.44;55.90;102506.22;6339581;22;20098;-62
2022/04/15 04:44:38;;;;;;;18.25;14.63;;;;;;;12.44;56.06;102517.88;6337878;22;20011;-62
2022/04/15 04:47:07;;;;;;;19.30;14.43;;;;;;;12.44;55.93;102512.47;6339025;22;20010;-64
2022/04/15 04:49:34;;;;;;;20.95;16.40;;;;;;;12.44;56.00;102512.47;6338666;22;20021;-65
2022/04/15 04:52:01;;;;;;;28.88;19.38;;;;;;;12.43;55.97;102518.81;6339722;22;20015;-63
2022/04/15 04:54:28;;;;;;;39.22;26.25;;;;;;;12.42;56.20;102525.16;6339404;22;20090;-63
2022/04/15 04:56:55;;;;;;;49.65;30.45;;;;;;;12.40;55.96;102518.97;6310934;22;20101;-62
2022/04/15 04:59:25;;;;;;;43.90;27.85;;;;;;;12.37;56.19;102521.84;6339324;22;20021;-63
2022/04/15 05:01:52;;;;;;;31.15;20.73;;;;;;;12.36;56.27;102529.03;6338863;22;20011;-62
2022/04/15 05:04:18;;;;;;;27.77;19.15;;;;;;;12.32;56.12;102534.66;6339473;22;20014;-62
2022/04/15 05:06:45;;;;;;;23.17;17.20;;;;;;;12.32;56.09;102537.38;6311824;22;20090;-63
2022/04/15 05:09:12;;;;;;;21.83;14.98;;;;;;;12.32;56.21;102542.75;6310975;22;20025;-63
2022/04/15 05:11:39;;;;;;;22.33;15.95;;;;;;;12.33;56.23;102539.09;6285576;22;20391;-63
2022/04/15 05:14:06;;;;;;;23.92;14.52;;;;;;;12.33;56.37;102539.97;6338985;22;20015;-63
2022/04/15 05:16:32;;;;;;;24.48;16.80;;;;;;;12.32;56.35;102545.44;6338890;22;20021;-63
2022/04/15 05:18:59;;;;;;;22.58;15.68;;;;;;;12.32;56.54;102548.13;6339197;22;20741;-63
2022/04/15 05:21:25;;;;;;;20.92;14.70;;;;;;;12.31;56.68;102549.97;6344256;22;20402;-62
2022/04/15 05:23:52;;;;;;;21.55;14.77;;;;;;;12.32;56.58;102551.72;6341126;22;20035;-62
2022/04/15 05:26:20;;;;;;;20.63;13.90;;;;;;;12.37;56.81;102559.56;6339556;22;20332;-63
2022/04/15 05:28:46;;;;;;;20.38;14.52;;;;;;;12.38;56.82;102562.16;6338370;22;20034;-62
2022/04/15 05:31:13;;;;;;;19.60;14.60;;;;;;;12.38;56.76;102562.16;6338841;22;20034;-63
2022/04/15 05:33:40;;;;;;;20.63;13.85;;;;;;;12.41;56.94;102570.09;6338924;22;20021;-63
2022/04/15 05:36:06;;;;;;;20.85;13.80;;;;;;;12.45;56.90;102573.50;6339069;22;20019;-62
2022/04/15 05:38:33;;;;;;;19.42;13.13;;;;;;;12.50;56.92;102581.34;6338782;22;20038;-63
2022/04/15 05:41:00;;;;;;;18.05;12.90;;;;;;;12.53;57.14;102581.19;6339660;22;20073;-64
2022/04/15 05:43:26;;;;;;;19.52;13.48;;;;;;;12.57;56.98;102580.09;6341176;22;20387;-62
2022/04/15 05:45:53;;;;;;;19.48;13.23;;;;;;;12.60;56.92;102577.22;6313473;22;20053;-64
2022/04/15 05:48:19;;;;;;;21.58;14.18;;;;;;;12.65;57.21;102585.97;6340935;22;20303;-62
2022/04/15 05:50:46;;;;;;;17.50;12.55;;;;;;;12.71;57.19;102591.03;6340085;22;20019;-63
2022/04/15 05:53:13;;;;;;;20.65;12.90;;;;;;;12.76;57.04;102591.69;6341085;22;20017;-63
2022/04/15 05:55:40;;;;;;;19.95;13.23;;;;;;;12.81;57.26;102592.31;6340495;22;20352;-63
2022/04/15 05:58:09;;;;;;;19.95;14.02;;;;;;;12.84;57.29;102602.06;6340976;22;20015;-64
2022/04/15 06:00:36;;;;;;;21.88;13.93;;;;;;;12.87;57.14;102610.00;6312423;22;20011;-63
2022/04/15 06:03:03;;;;;;;20.73;13.10;;;;;;;12.89;57.09;102600.88;6312415;22;20389;-63
2022/04/15 06:05:30;;;;;;;18.75;14.20;;;;;;;12.92;57.21;102614.19;6340829;22;20021;-63
2022/04/15 06:07:57;;;;;;;19.25;13.18;;;;;;;12.94;57.24;102598.78;6340321;22;20038;-63
2022/04/15 06:10:23;;;;;;;19.40;12.65;;;;;;;12.97;57.06;102606.72;6339961;22;20011;-63
2022/04/15 06:15:41;;;;;;;17.95;12.30;;;;;;;13.02;57.24;102618.13;6339822;22;20403;-63
2022/04/15 06:18:08;;;;;;;23.75;13.00;;;;;;;13.06;57.44;102621.53;6340529;22;20011;-63
2022/04/15 06:20:35;;;;;;;20.55;13.80;;;;;;;13.08;57.35;102630.41;6312710;22;20046;-63
2022/04/15 06:23:02;;;;;;;23.52;13.82;;;;;;;13.11;57.42;102621.28;6339587;22;20015;-64
2022/04/15 06:25:29;;;;;;;24.67;14.15;;;;;;;13.15;57.15;102621.06;6313533;22;20022;-64
2022/04/15 06:27:55;;;;;;;21.92;14.95;;;;;;;13.21;57.22;102636.06;6338738;22;20017;-65
2022/04/15 06:30:22;;;;;;;23.10;14.90;;;;;;;13.29;57.33;102633.81;6338452;22;20077;-65
2022/04/15 06:32:48;;;;;;;24.25;15.50;;;;;;;13.39;57.34;102628.84;6312068;22;20436;-63
2022/04/15 06:35:15;;;;;;;24.02;14.98;;;;;;;13.48;57.39;102626.50;6313154;22;20021;-64
2022/04/15 06:37:41;;;;;;;20.90;13.85;;;;;;;13.56;57.46;102631.47;6340496;22;20019;-64
2022/04/15 06:40:09;;;;;;;20.00;12.85;;;;;;;13.65;57.40;102636.38;6340121;22;20015;-64
2022/04/15 06:42:36;;;;;;;19.73;13.27;;;;;;;13.75;57.31;102642.13;6340415;22;20077;-64
2022/04/15 06:45:02;;;;;;;21.48;13.52;;;;;;;13.83;57.34;102643.44;6312505;22;20105;-64
2022/04/15 06:47:29;;;;;;;16.20;11.90;;;;;;;13.94;57.33;102642.84;6339595;22;20441;-64
2022/04/15 06:49:56;;;;;;;18.13;11.80;;;;;;;14.01;57.02;102638.81;6312684;22;20098;-65
2022/04/15 06:52:23;;;;;;;16.00;11.32;;;;;;;14.06;56.84;102646.66;6339371;22;20015;-64
2022/04/15 06:54:57;;;;;;;16.65;10.90;;;;;;;14.09;56.69;102649.19;6311863;22;20023;-65
2022/04/15 06:57:23;;;;;;;14.48;10.05;;;;;;;14.11;56.33;102649.97;6312121;22;20015;-65
2022/04/15 06:59:50;;;;;;;17.38;11.32;;;;;;;14.12;56.16;102644.50;6339202;22;20326;-63
2022/04/15 07:02:17;;;;;;;15.93;10.75;;;;;;;14.14;56.14;102655.22;6312277;22;20499;-67
2022/04/15 07:04:43;;;;;;;14.32;10.15;;;;;;;14.15;56.20;102655.16;6312226;22;20017;-66
2022/04/15 07:07:10;;;;;;;16.23;10.75;;;;;;;14.18;55.78;102649.56;6311208;22;20026;-66
2022/04/15 07:09:36;;;;;;;12.15;8.98;;;;;;;14.19;55.81;102654.00;6339307;22;20348;-66
2022/04/15 07:12:03;;;;;;;13.43;8.93;;;;;;;14.22;55.72;102659.25;6339623;22;20015;-67
2022/04/15 07:14:32;;;;;;;10.98;8.70;;;;;;;14.26;55.75;102657.22;6339809;22;20018;-64
2022/04/15 07:17:00;;;;;;;14.20;8.25;;;;;;;14.30;55.40;102661.50;6313429;22;20015;-65
2022/04/15 07:19:27;;;;;;;11.98;8.32;;;;;;;14.35;55.13;102667.50;6339845;22;20018;-65
2022/04/15 07:21:54;;;;;;;12.38;7.85;;;;;;;14.37;55.11;102662.88;6339616;22;20468;-65
2022/04/15 07:24:21;;;;;;;11.57;8.70;;;;;;;14.39;55.12;102658.25;6339847;22;20015;-65
2022/04/15 07:26:48;;;;;;;12.98;8.50;;;;;;;14.43;54.97;102664.38;6339732;22;20011;-65
2022/04/15 07:29:14;;;;;;;10.77;8.30;;;;;;;14.48;54.90;102665.00;6339448;22;20395;-66
2022/04/15 07:31:42;;;;;;;10.90;8.75;;;;;;;14.51;54.86;102671.09;6339876;22;20014;-66
2022/04/15 07:34:08;;;;;;;12.48;8.48;;;;;;;14.52;54.61;102671.97;6339982;22;20318;-65
2022/04/15 07:39:14;;;;;;;9.70;8.00;;;;;;;14.55;54.48;102674.47;6339908;22;20018;-65
2022/04/15 07:41:41;;;;;;;13.77;9.65;;;;;;;14.60;54.50;102675.94;6339532;22;20321;-65
2022/04/15 07:44:10;;;;;;;12.93;8.57;;;;;;;14.66;54.21;102677.44;6339985;22;20444;-66
2022/04/15 07:46:37;;;;;;;12.05;8.65;;;;;;;14.69;54.15;102676.38;6340304;22;20344;-66
2022/04/15 07:49:05;;;;;;;13.05;8.05;;;;;;;14.73;54.04;102670.69;6338665;22;20073;-67
2022/04/15 07:51:32;;;;;;;10.27;8.32;;;;;;;14.77;53.96;102671.38;6311380;22;20022;-67
2022/04/15 07:54:00;;;;;;;11.88;6.88;;;;;;;14.82;53.77;102672.84;6338669;22;20113;-66
2022/04/15 07:56:27;;;;;;;9.55;7.22;;;;;;;14.90;53.89;102678.69;6311713;22;20018;-67
2022/04/15 07:58:53;;;;;;;9.32;7.40;;;;;;;14.99;53.68;102679.97;6312078;22;20441;-67
2022/04/15 08:01:21;;;;;;;9.13;7.03;;;;;;;15.06;53.51;102678.63;6311181;22;20018;-67
2022/04/15 08:03:48;;;;;;;8.43;6.60;;;;;;;15.13;53.44;102677.28;6338739;22;20044;-66
2022/04/15 08:06:15;;;;;;;8.40;6.38;;;;;;;15.17;53.25;102686.09;6339100;22;20448;-67
2022/04/15 08:08:41;;;;;;;7.70;6.07;;;;;;;15.22;52.99;102676.72;6311511;22;20014;-67
2022/04/15 08:11:09;;;;;;;10.00;6.07;;;;;;;15.30;52.98;102678.97;6311543;22;20021;-67
2022/04/15 08:13:37;;;;;;;7.97;5.63;;;;;;;15.39;52.83;102675.69;6312521;22;20141;-66
2022/04/15 08:16:04;;;;;;;6.47;5.70;;;;;;;15.47;52.86;102686.91;6339038;22;20015;-67
2022/04/15 08:18:32;;;;;;;9.05;5.30;;;;;;;15.62;52.69;102679.72;6311221;22;20348;-68
2022/04/15 08:20:59;;;;;;;7.80;6.22;;;;;;;15.77;52.53;102681.44;6311726;22;20040;-67
2022/04/15 08:23:27;;;;;;;6.05;5.28;;;;;;;15.86;52.26;102683.56;6311165;22;20022;-67
2022/04/15 08:25:53;;;;;;;7.03;5.47;;;;;;;15.89;51.81;102680.66;6311102;22;20358;-67
2022/04/15 08:28:21;;;;;;;7.47;5.43;;;;;;;15.90;51.36;102681.53;6339331;22;20034;-67
2022/04/15 08:30:48;;;;;;;6.32;4.80;;;;;;;15.94;51.58;102683.06;6338446;22;20021;-67
2022/04/15 08:33:15;;;;;;;6.65;5.00;;;;;;;15.98;51.37;102689.16;6338624;22;20116;-67
2022/04/15 08:35:42;;;;;;;6.88;4.97;;;;;;;15.99;51.03;102682.78;6311912;22;20022;-67
2022/04/15 08:38:09;;;;;;;7.13;5.13;;;;;;;16.02;51.26;102682.59;6338934;22;20015;-68
2022/04/15 08:40:37;;;;;;;6.43;4.88;;;;;;;16.09;51.16;102673.09;6338495;22;20441;-66
2022/04/15 08:43:06;;;;;;;6.95;4.97;;;;;;;16.17;51.02;102679.75;6338766;22;20015;-66
2022/04/15 08:45:39;;;;;;;5.95;5.18;;;;;;;16.33;51.06;102686.84;6339544;22;20015;-67
2022/04/15 08:48:09;;;;;;;5.18;4.32;;;;;;;16.45;50.59;102686.94;6311595;22;20063;-67
2022/04/15 08:50:35;;;;;;;8.30;4.38;;;;;;;16.56;50.42;102690.78;6311337;22;20083;-66
2022/04/15 08:53:04;;;;;;;5.82;5.00;;;;;;;16.64;50.25;102685.72;6310803;22;20011;-67
2022/04/15 08:55:31;;;;;;;9.52;5.10;;;;;;;16.70;50.02;102693.47;6310250;22;20122;-67
2022/04/15 08:57:58;;;;;;;6.57;5.15;;;;;;;16.76;49.88;102688.50;6311500;22;20045;-67
2022/04/15 09:00:29;;;;;;;6.22;5.18;;;;;;;16.83;49.96;102689.81;6338946;22;20015;-66
2022/04/15 09:02:56;;;;;;;5.55;3.97;;;;;;;16.91;49.51;102693.84;6311386;22;20023;-67
2022/04/15 09:05:28;;;;;;;6.05;5.00;;;;;;;16.90;49.28;102692.13;6339253;22;20017;-66
2022/04/15 09:08:08;;;;;;;5.63;4.38;;;;;;;16.85;48.69;102703.28;6338991;22;20011;-67
2022/04/15 09:10:36;;;;;;;4.78;4.15;;;;;;;16.87;48.95;102700.47;6338646;22;20093;-67
2022/04/15 09:13:04;;;;;;;4.85;4.32;;;;;;;16.86;48.83;102705.03;6285419;22;20038;-67
2022/04/15 09:15:35;;;;;;;7.53;5.00;;;;;;;16.91;48.79;102708.28;6313955;22;20015;-67
2022/04/15 09:18:02;;;;;;;5.40;4.60;;;;;;;16.96;48.63;102718.84;6313469;22;20026;-67
2022/04/15 09:20:33;;;;;;;5.50;4.93;;;;;;;16.96;48.27;102717.00;6313425;22;20010;-66
2022/04/15 09:23:10;;;;;;;7.03;4.97;;;;;;;16.96;48.22;102722.41;6340679;22;20018;-67
2022/04/15 09:25:39;;;;;;;7.22;4.57;;;;;;;17.04;48.59;102717.31;6341137;22;20097;-67
2022/04/15 09:28:06;;;;;;;6.40;4.95;;;;;;;17.15;48.40;102716.63;6313608;22;20332;-67
2022/04/15 09:30:41;;;;;;;5.60;4.32;;;;;;;17.27;48.30;102720.34;6313819;22;20098;-67
2022/04/15 09:33:10;;;;;;;9.43;5.15;;;;;;;17.37;48.06;102724.16;6313244;22;20046;-67
2022/04/15 09:35:37;;;;;;;5.88;4.40;;;;;;;17.49;47.78;102728.72;6313270;22;20106;-68
2022/04/15 09:38:05;;;;;;;5.55;3.97;;;;;;;17.55;47.41;102735.56;6313029;22;20076;-67
2022/04/15 09:40:37;;;;;;;6.53;4.00;;;;;;;17.58;47.30;102728.06;6287000;22;20021;-67
2022/04/15 09:43:06;;;;;;;6.93;4.30;;;;;;;17.55;47.18;102736.44;6340721;22;20093;-67
2022/04/15 09:45:36;;;;;;;6.97;4.25;;;;;;;17.53;46.97;102741.09;6340691;22;20015;-67
2022/04/15 09:48:05;;;;;;;6.63;4.22;;;;;;;17.55;46.95;102736.44;6340732;22;20013;-68
2022/04/15 09:50:38;;;;;;;24.45;6.03;;;;;;;17.59;47.00;102745.22;6339807;22;20018;-68
2022/04/15 09:53:14;;;;;;;5.45;3.95;;;;;;;17.66;47.05;102742.00;6341089;22;20010;-67
2022/04/15 09:55:43;;;;;;;3.95;3.60;;;;;;;17.79;46.90;102744.72;6340995;22;20068;-68
2022/04/15 09:58:11;;;;;;;4.63;4.13;;;;;;;17.83;46.72;102748.94;6340669;22;20057;-69
2022/04/15 10:00:40;;;;;;;4.80;4.30;;;;;;;17.82;46.27;102746.34;6340358;22;20337;-67
2022/04/15 10:03:08;;;;;;;4.68;3.72;;;;;;;17.78;46.07;102743.84;6340767;22;20344;-67
2022/04/15 10:05:37;;;;;;;4.97;4.05;;;;;;;17.78;46.12;102742.97;6340367;22;20011;-68
2022/04/15 10:08:04;;;;;;;5.88;3.92;;;;;;;17.79;46.31;102742.88;6340705;22;20011;-68
2022/04/15 10:10:32;;;;;;;4.35;3.95;;;;;;;17.81;46.05;102750.03;6339597;22;20015;-67
2022/04/15 10:13:07;;;;;;;4.30;3.45;;;;;;;17.77;46.03;102742.09;6313186;22;20011;-67
2022/04/15 10:15:38;;;;;;;5.47;4.13;;;;;;;17.78;46.33;102746.56;6340718;22;20383;-66
2022/04/15 10:18:05;;;;;;;5.10;3.72;;;;;;;17.79;46.11;102742.88;6312942;22;20011;-68
2022/04/15 10:20:32;;;;;;;6.43;3.90;;;;;;;17.82;45.98;102751.78;6340220;22;20015;-67
2022/04/15 10:23:04;;;;;;;4.10;3.67;;;;;;;17.82;46.07;102746.34;6340644;22;20011;-67
2022/04/15 10:25:32;;;;;;;4.30;3.55;;;;;;;17.83;45.77;102746.22;6340603;22;20052;-68
2022/04/15 10:28:06;;;;;;;4.57;3.85;;;;;;;17.86;45.97;102747.91;6340120;22;20014;-67
2022/04/15 10:30:36;;;;;;;7.00;4.57;;;;;;;17.90;45.85;102749.41;6313128;22;20090;-68
2022/04/15 10:33:03;;;;;;;4.82;3.33;;;;;;;17.90;45.26;102741.25;6340613;22;20086;-67
2022/04/15 10:35:32;;;;;;;4.15;3.65;;;;;;;17.89;45.42;102739.53;6340093;22;20484;-68
2022/04/15 10:38:01;;;;;;;6.88;4.25;;;;;;;17.93;45.39;102739.19;6340178;22;20468;-67
2022/04/15 10:40:33;;;;;;;4.82;3.97;;;;;;;17.94;45.59;102742.78;6339719;22;20021;-68
2022/04/15 10:43:06;;;;;;;6.47;3.72;;;;;;;17.93;45.29;102739.19;6339948;22;20010;-68
2022/04/15 10:45:36;;;;;;;6.78;4.13;;;;;;;17.92;45.55;102737.44;6340452;22;20011;-68
2022/04/15 10:48:04;;;;;;;4.63;3.90;;;;;;;17.91;45.19;102743.88;6340397;22;20011;-68
2022/04/15 10:50:33;;;;;;;5.15;3.53;;;;;;;17.93;45.51;102738.31;6339054;22;20019;-67
2022/04/15 10:53:38;;;;;;;7.55;4.13;;;;;;;17.97;45.07;102739.84;6312510;22;20011;-68
2022/04/15 10:56:08;;;;;;;6.13;3.70;;;;;;;17.99;45.06;102741.47;6184224;23;20433;-68
2022/04/15 11:02:02;;;;;;;5.32;3.97;;;;;;;17.92;45.20;102742.03;6290036;22;20025;-67
2022/04/15 11:04:35;;;;;;;5.53;3.78;;;;;;;17.86;45.15;102737.91;6339995;22;20449;-67
2022/04/15 11:07:14;;;;;;;4.50;4.05;;;;;;;17.83;44.95;102739.94;6340221;22;20015;-67
2022/04/15 11:09:41;;;;;;;4.97;3.88;;;;;;;17.86;45.30;102745.19;6339602;22;20019;-67
2022/04/15 11:12:09;;;;;;;6.57;3.90;;;;;;;17.89;45.07;102748.53;6339228;22;20020;-68
2022/04/15 11:14:36;;;;;;;4.95;3.63;;;;;;;17.89;45.11;102743.09;6312237;22;20015;-68
2022/04/15 11:17:02;;;;;;;4.90;3.97;;;;;;;17.91;45.12;102738.44;6339710;22;20045;-68
2022/04/15 11:19:30;;;;;;;5.57;4.03;;;;;;;18.00;45.35;102742.34;6339792;22;20011;-68
2022/04/15 11:21:56;;;;;;;4.85;4.15;;;;;;;18.09;45.28;102745.25;6339473;22;20085;-67
2022/04/15 11:24:30;;;;;;;4.75;3.63;;;;;;;18.17;44.79;102733.81;6339376;22;20034;-68
2022/04/15 11:26:58;;;;;;;5.75;4.10;;;;;;;18.25;45.09;102734.13;6339961;22;20011;-67
2022/04/15 11:29:34;;;;;;;6.90;4.25;;;;;;;18.29;44.68;102737.47;6339532;22;20064;-67